createdAt,value
2023-12-10T00:04:03.654Z,97671.84
2023-12-10T00:09:07.687Z,97674.44
2023-12-10T00:14:09.488Z,97669.91
2023-12-10T00:19:11.689Z,97641.13
2023-12-10T00:24:13.634Z,97658.19
2023-12-10T00:29:15.593Z,97646.06
2023-12-10T00:34:17.524Z,97647.75
2023-12-10T00:39:19.236Z,97644.44
2023-12-10T00:44:21.290Z,97642.03
2023-12-10T00:49:23.327Z,97639.84
2023-12-10T00:54:25.646Z,97626.38
2023-12-10T00:59:27.633Z,97619.28
2023-12-10T01:04:29.521Z,97613.72
2023-12-10T01:09:31.511Z,97622.41
2023-12-10T01:14:33.327Z,97618.03
2023-12-10T01:19:35.381Z,97621.44
2023-12-10T01:24:37.411Z,97632.03
2023-12-10T01:29:39.308Z,97633.50
2023-12-10T01:34:44.513Z,97627.91
2023-12-10T01:39:46.614Z,97621.69
2023-12-10T01:44:48.589Z,97628.28
2023-12-10T01:49:50.538Z,97623.38
2023-12-10T01:54:52.270Z,97625.34
2023-12-10T01:59:54.536Z,97619.28
2023-12-10T02:04:59.083Z,97611.28
2023-12-10T02:10:01.595Z,97583.25
2023-12-10T02:15:33.204Z,97587.56
2023-12-10T02:20:35.034Z,97602.84
2023-12-10T02:25:40.789Z,97598.88
2023-12-10T02:30:43.292Z,97614.53
2023-12-10T02:35:45.358Z,97624.50
2023-12-10T02:40:47.043Z,97609.88
2023-12-10T02:45:49.242Z,97617.47
2023-12-10T02:50:51.776Z,97605.09
2023-12-10T02:55:53.522Z,97617.75
2023-12-10T03:00:55.800Z,97620.59
2023-12-10T03:05:58.208Z,97621.44
2023-12-10T03:10:59.971Z,97627.66
2023-12-10T03:16:01.863Z,97631.97
2023-12-10T03:21:04.481Z,97631.53
2023-12-10T03:26:06.375Z,97604.22
2023-12-10T03:31:08.336Z,97621.50
2023-12-10T03:36:10.431Z,97629.81
2023-12-10T03:41:12.199Z,97631.44
2023-12-10T03:46:13.961Z,97628.47
2023-12-10T03:51:15.842Z,97627.72
2023-12-10T03:56:17.590Z,97636.50
2023-12-10T04:01:19.996Z,97644.69
2023-12-10T04:06:22.137Z,97645.56
2023-12-10T04:11:26.983Z,97627.03
2023-12-10T04:16:31.045Z,97612.84
2023-12-10T04:21:33.280Z,97621.56
2023-12-10T04:26:35.413Z,97607.69
2023-12-10T04:31:38.379Z,97633.84
2023-12-10T04:36:40.313Z,97617.34
2023-12-10T04:41:42.297Z,97630.09
2023-12-10T04:46:44.312Z,97632.06
2023-12-10T04:51:46.145Z,97654.28
2023-12-10T04:56:47.879Z,97660.31
2023-12-10T05:01:50.088Z,97669.66
2023-12-10T05:06:51.979Z,97679.97
2023-12-10T05:11:53.753Z,97693.06
2023-12-10T05:16:55.638Z,97704.50
2023-12-10T05:21:57.894Z,97701.31
2023-12-10T05:26:59.889Z,97707.31
2023-12-10T05:32:01.650Z,97705.03
2023-12-10T05:37:03.612Z,97720.72
2023-12-10T05:42:05.791Z,97716.66
2023-12-10T05:47:07.616Z,97737.47
2023-12-10T05:52:09.871Z,97747.34
2023-12-10T05:57:11.646Z,97755.88
2023-12-10T06:02:13.432Z,97753.41
2023-12-10T06:07:15.239Z,97762.66
2023-12-10T06:12:17.826Z,97761.22
2023-12-10T06:17:19.929Z,97767.53
2023-12-10T06:22:22.353Z,97769.69
2023-12-10T06:27:24.239Z,97782.34
2023-12-10T06:32:27.510Z,97787.25
2023-12-10T06:37:29.639Z,97800.66
2023-12-10T06:42:31.812Z,97802.06
2023-12-10T06:47:35.771Z,97816.75
2023-12-10T06:52:38.138Z,97827.94
2023-12-10T06:57:40.113Z,97822.75
2023-12-10T07:02:42.316Z,97835.06
2023-12-10T07:07:44.359Z,97847.84
2023-12-10T07:12:46.351Z,97834.81
2023-12-10T07:17:48.323Z,97827.81
2023-12-10T07:22:50.251Z,97844.63
2023-12-10T07:27:52.222Z,97858.13
2023-12-10T07:32:55.042Z,97844.25
2023-12-10T07:37:57.041Z,97864.06
2023-12-10T07:42:59.502Z,97848.47
2023-12-10T07:48:01.665Z,97858.19
2023-12-10T07:53:06.066Z,97894.75
2023-12-10T07:58:08.296Z,97897.78
2023-12-10T08:03:10.131Z,97909.56
2023-12-10T08:08:12.323Z,97917.50
2023-12-10T08:13:14.099Z,97919.75
2023-12-10T08:18:17.534Z,97932.34
2023-12-10T08:23:19.432Z,97938.22
2023-12-10T08:28:21.332Z,97956.50
2023-12-10T08:33:23.376Z,97951.78
2023-12-10T08:38:25.392Z,97969.91
2023-12-10T08:43:27.251Z,97970.81
2023-12-10T08:48:30.449Z,97986.44
2023-12-10T08:53:32.652Z,98002.97
2023-12-10T08:58:34.673Z,98016.22
2023-12-10T09:03:36.867Z,98021.84
2023-12-10T09:08:38.816Z,98023.59
2023-12-10T09:13:40.751Z,98043.25
2023-12-10T09:18:45.161Z,98065.22
2023-12-10T09:23:47.166Z,98049.59
2023-12-10T09:28:49.043Z,98058.25
2023-12-10T09:33:51.266Z,98050.75
2023-12-10T09:38:53.392Z,98045.53
2023-12-10T09:43:55.203Z,98055.38
2023-12-10T09:48:57.756Z,98064.53
2023-12-10T09:53:59.683Z,98068.66
2023-12-10T09:59:01.612Z,98074.56
2023-12-10T10:04:05.237Z,98095.97
2023-12-10T10:09:08.417Z,98093.22
2023-12-10T10:14:11.926Z,98100.22
2023-12-10T10:19:14.801Z,98123.88
2023-12-10T10:24:18.431Z,98126.78
2023-12-10T10:29:23.867Z,98117.25
2023-12-10T10:34:26.463Z,98137.66
2023-12-10T10:39:30.711Z,98144.47
2023-12-10T10:44:33.220Z,98152.00
2023-12-10T10:49:39.317Z,98137.34
2023-12-10T10:54:41.949Z,98131.94
2023-12-10T10:59:45.052Z,98134.88
2023-12-10T11:04:48.801Z,98116.53
2023-12-10T11:09:58.389Z,98110.50
2023-12-10T11:15:01.543Z,98134.72
2023-12-10T11:20:04.620Z,98127.97
2023-12-10T11:25:07.658Z,98111.44
2023-12-10T11:30:10.271Z,98119.06
2023-12-10T11:35:15.434Z,98122.75
2023-12-10T11:40:17.927Z,98112.00
2023-12-10T11:45:19.958Z,98107.94
2023-12-10T11:50:22.170Z,98100.56
2023-12-10T11:55:24.235Z,98101.53
2023-12-10T12:00:26.397Z,98114.22
2023-12-10T12:05:28.399Z,98130.44
2023-12-10T12:10:39.256Z,98134.03
2023-12-10T12:15:45.732Z,98142.53
2023-12-10T12:20:47.905Z,98148.31
2023-12-10T12:25:49.832Z,98144.94
2023-12-10T12:30:51.737Z,98160.25
2023-12-10T12:35:53.684Z,98168.94
2023-12-10T12:40:55.622Z,98164.66
2023-12-10T12:45:57.465Z,98178.44
2023-12-10T12:50:59.310Z,98173.50
2023-12-10T12:56:01.133Z,98177.13
2023-12-10T13:01:03.096Z,98174.22
2023-12-10T13:06:05.314Z,98181.94
2023-12-10T13:11:07.160Z,98190.50
2023-12-10T13:16:09.139Z,98191.75
2023-12-10T13:21:11.168Z,98211.34
2023-12-10T13:26:12.984Z,98204.25
2023-12-10T13:31:15.061Z,98223.53
2023-12-10T13:36:17.217Z,98218.34
2023-12-10T13:41:19.067Z,98223.03
2023-12-10T13:46:20.881Z,98218.28
2023-12-10T13:51:22.755Z,98224.28
2023-12-10T13:56:24.536Z,98235.66
2023-12-10T14:01:26.803Z,98244.44
2023-12-10T14:06:28.663Z,98251.53
2023-12-10T14:11:35.256Z,98264.06
2023-12-10T14:16:43.881Z,98258.22
2023-12-10T14:21:46.104Z,98270.88
2023-12-10T14:26:47.984Z,98262.84
2023-12-10T14:31:49.781Z,98254.34
2023-12-10T14:36:52.187Z,98265.00
2023-12-10T14:41:54.025Z,98273.28
2023-12-10T14:47:01.184Z,98278.69
2023-12-10T14:52:03.127Z,98279.69
2023-12-10T14:57:06.799Z,98284.00
2023-12-10T15:02:12.120Z,98285.94
2023-12-10T15:07:15.210Z,98301.19
2023-12-10T15:12:17.346Z,98312.91
2023-12-10T15:17:19.309Z,98313.25
2023-12-10T15:22:21.793Z,98306.47
2023-12-10T15:27:23.712Z,98327.25
2023-12-10T15:32:25.869Z,98344.28
2023-12-10T15:37:30.059Z,98346.38
2023-12-10T15:42:32.067Z,98344.25
2023-12-10T15:47:33.782Z,98344.91
2023-12-10T15:52:40.727Z,98347.50
2023-12-10T15:57:43.718Z,98356.78
2023-12-10T16:02:45.565Z,98370.88
2023-12-10T16:07:51.873Z,98374.41
2023-12-10T16:12:54.564Z,98379.91
2023-12-10T16:17:56.517Z,98392.22
2023-12-10T16:22:58.983Z,98403.72
2023-12-10T16:28:01.090Z,98406.19
2023-12-10T16:33:03.632Z,98382.75
2023-12-10T16:38:05.456Z,98396.88
2023-12-10T16:43:07.885Z,98381.09
2023-12-10T16:48:11.162Z,98396.06
2023-12-10T16:53:13.099Z,98388.06
2023-12-10T16:58:14.846Z,98395.41
2023-12-10T17:03:16.774Z,98398.69
2023-12-10T17:08:18.578Z,98410.97
2023-12-10T17:13:20.315Z,98405.72
2023-12-10T17:18:22.292Z,98424.22
2023-12-10T17:23:24.100Z,98427.69
2023-12-10T17:28:26.048Z,98436.28
2023-12-10T17:33:28.061Z,98440.53
2023-12-10T17:38:29.872Z,98440.97
2023-12-10T17:43:31.684Z,98434.19
2023-12-10T17:48:33.541Z,98432.44
2023-12-10T17:53:35.706Z,98428.94
2023-12-10T17:58:38.084Z,98433.38
2023-12-10T18:03:40.245Z,98448.00
2023-12-10T18:08:42.352Z,98436.19
2023-12-10T18:13:44.830Z,98432.09
2023-12-10T18:18:46.976Z,98429.00
2023-12-10T18:23:48.981Z,98425.72
2023-12-10T18:28:51.296Z,98423.09
2023-12-10T18:33:55.210Z,98424.91
2023-12-10T18:38:57.542Z,98427.56
2023-12-10T18:44:00.222Z,98429.59
2023-12-10T18:49:02.946Z,98433.44
2023-12-10T18:54:06.044Z,98419.97
2023-12-10T18:59:08.830Z,98422.81
2023-12-10T19:04:11.612Z,98430.00
2023-12-10T19:09:14.691Z,98426.38
2023-12-10T19:14:17.103Z,98428.84
2023-12-10T19:19:19.656Z,98429.69
2023-12-10T19:24:22.638Z,98422.44
2023-12-10T19:29:25.195Z,98412.09
2023-12-10T19:34:30.445Z,98406.25
2023-12-10T19:39:32.404Z,98409.53
2023-12-10T19:44:34.957Z,98386.16
2023-12-10T19:49:37.821Z,98376.66
2023-12-10T19:54:40.573Z,98385.84
2023-12-10T19:59:44.139Z,98372.78
2023-12-10T20:04:47.298Z,98375.53
2023-12-10T20:09:50.203Z,98368.72
2023-12-10T20:14:52.976Z,98377.16
2023-12-10T20:19:55.736Z,98383.88
2023-12-10T20:25:02.828Z,98379.66
2023-12-10T20:30:09.417Z,98372.28
2023-12-10T20:35:12.012Z,98364.47
2023-12-10T20:40:15.173Z,98359.97
2023-12-10T20:45:18.156Z,98347.91
2023-12-10T20:50:21.686Z,98357.03
2023-12-10T20:55:24.281Z,98354.78
2023-12-10T21:00:26.295Z,98363.91
2023-12-10T21:05:28.290Z,98361.25
2023-12-10T21:10:30.160Z,98346.91
2023-12-10T21:15:32.219Z,98335.78
2023-12-10T21:20:34.047Z,98307.13
2023-12-10T21:25:36.335Z,98334.81
2023-12-10T21:30:38.188Z,98319.69
2023-12-10T21:35:40.181Z,98311.31
2023-12-10T21:40:41.990Z,98307.78
2023-12-10T21:45:43.942Z,98308.59
2023-12-10T21:50:48.993Z,98287.47
2023-12-10T21:55:50.679Z,98289.19
2023-12-10T22:00:58.060Z,98269.97
2023-12-10T22:05:59.878Z,98271.50
2023-12-10T22:11:01.719Z,98282.59
2023-12-10T22:16:03.734Z,98262.41
2023-12-10T22:21:07.817Z,98238.66
2023-12-10T22:26:10.161Z,98232.97
2023-12-10T22:31:12.145Z,98248.59
2023-12-10T22:36:14.014Z,98245.63
2023-12-10T22:41:16.137Z,98240.72
2023-12-10T22:46:18.157Z,98241.34
2023-12-10T22:51:20.231Z,98223.84
2023-12-10T22:56:21.900Z,98238.84
2023-12-10T23:01:23.899Z,98203.13
2023-12-10T23:06:26.232Z,98194.88
2023-12-10T23:11:28.092Z,98183.09
2023-12-10T23:16:29.977Z,98161.19
2023-12-10T23:21:31.812Z,98167.31
2023-12-10T23:26:35.225Z,98149.38
2023-12-10T23:31:36.984Z,98147.03
2023-12-10T23:36:39.074Z,98142.25
2023-12-10T23:41:41.221Z,98135.22
2023-12-10T23:46:46.256Z,98126.41
2023-12-10T23:51:48.096Z,98098.94
2023-12-10T23:56:49.826Z,98090.81
